createdAt,value
2018-09-03T00:00:29.412Z,56062.46
2018-09-03T00:02:58.637Z,56071.71
2018-09-03T00:05:27.842Z,56078.91
2018-09-03T00:07:57.028Z,56075.82
2018-09-03T00:10:26.189Z,56065.54
2018-09-03T00:12:55.348Z,56098.45
2018-09-03T00:15:24.442Z,56086.11
2018-09-03T00:17:53.628Z,56084.05
2018-09-03T00:20:22.779Z,56067.60
2018-09-03T00:22:51.954Z,56072.74
2018-09-03T00:25:21.066Z,56052.18
2018-09-03T00:27:50.232Z,56078.91
2018-09-03T00:30:19.366Z,56057.32
2018-09-03T00:32:53.774Z,56090.22
2018-09-03T00:35:28.221Z,56063.48
2018-09-03T00:39:06.577Z,56094.33
2018-09-03T00:41:41.044Z,56056.29
2018-09-03T00:44:15.373Z,56094.33
2018-09-03T00:46:49.751Z,56043.95
2018-09-03T00:49:18.913Z,56097.42
2018-09-03T00:51:48.040Z,56074.80
2018-09-03T00:54:17.232Z,56107.70
2018-09-03T00:56:46.336Z,56066.57
2018-09-03T00:59:15.515Z,56077.88
2018-09-03T01:01:44.601Z,56062.46
2018-09-03T01:04:13.753Z,56067.60
2018-09-03T01:06:42.834Z,56069.65
2018-09-03T01:09:11.955Z,56070.68
2018-09-03T01:11:41.029Z,56071.71
2018-09-03T01:14:10.150Z,56061.43
2018-09-03T01:16:39.254Z,56073.77
2018-09-03T01:19:08.376Z,56087.14
2018-09-03T01:21:37.509Z,56084.05
2018-09-03T01:24:06.838Z,56114.90
2018-09-03T01:26:35.962Z,56088.16
2018-09-03T01:29:05.051Z,56125.18
2018-09-03T01:31:34.213Z,56074.80
2018-09-03T01:34:03.392Z,56079.94
2018-09-03T01:36:32.482Z,56058.34
2018-09-03T01:39:01.608Z,56057.32
2018-09-03T01:41:30.780Z,56055.26
2018-09-03T01:43:59.996Z,56067.60
2018-09-03T01:46:29.086Z,56079.94
2018-09-03T01:48:58.148Z,56064.51
2018-09-03T01:51:27.283Z,56055.26
2018-09-03T01:53:56.466Z,56094.33
2018-09-03T01:56:25.583Z,56080.96
2018-09-03T01:58:54.707Z,56079.94
2018-09-03T02:01:23.859Z,56068.62
2018-09-03T02:03:52.979Z,56063.48
2018-09-03T02:06:22.131Z,56057.32
2018-09-03T02:08:51.239Z,56090.22
2018-09-03T02:11:20.417Z,56084.05
2018-09-03T02:13:49.570Z,56087.14
2018-09-03T02:16:18.706Z,56115.93
2018-09-03T02:18:47.852Z,56104.62
2018-09-03T02:21:17.010Z,56107.70
2018-09-03T02:23:46.123Z,56071.71
2018-09-03T02:26:15.232Z,56094.33
2018-09-03T02:28:44.406Z,56073.77
2018-09-03T02:31:13.540Z,56091.25
2018-09-03T02:33:42.669Z,56091.25
2018-09-03T02:36:11.879Z,56086.11
2018-09-03T02:38:41.014Z,56079.94
2018-09-03T02:41:10.121Z,56095.36
2018-09-03T02:43:39.415Z,56071.71
2018-09-03T02:46:08.514Z,56088.16
2018-09-03T02:48:37.623Z,56090.22
2018-09-03T02:51:07.165Z,56084.05
2018-09-03T02:53:36.478Z,56100.50
2018-09-03T02:56:05.608Z,56100.50
2018-09-03T02:58:34.717Z,56103.59
2018-09-03T03:01:03.913Z,56097.42
2018-09-03T03:03:33.082Z,56095.36
2018-09-03T03:06:02.178Z,56082.00
2018-09-03T03:08:31.324Z,56096.39
2018-09-03T03:11:00.516Z,56071.71
2018-09-03T03:13:29.625Z,56093.30
2018-09-03T03:15:58.737Z,56088.16
2018-09-03T03:18:27.825Z,56110.79
2018-09-03T03:20:56.913Z,56095.36
2018-09-03T03:23:26.018Z,56100.50
2018-09-03T03:25:55.190Z,56106.67
2018-09-03T03:28:24.403Z,56137.52
2018-09-03T03:30:53.558Z,56100.50
2018-09-03T03:33:22.656Z,56100.50
2018-09-03T03:35:51.770Z,56116.95
2018-09-03T03:38:20.906Z,56100.50
2018-09-03T03:40:50.051Z,56078.91
2018-09-03T03:43:19.202Z,56104.62
2018-09-03T03:45:48.343Z,56095.36
2018-09-03T03:48:17.480Z,56094.33
2018-09-03T03:50:46.635Z,56068.62
2018-09-03T03:53:15.786Z,56086.11
2018-09-03T03:55:45.125Z,56084.05
2018-09-03T03:58:14.317Z,56079.94
2018-09-03T04:00:43.456Z,56069.65
2018-09-03T04:03:12.836Z,56077.88
2018-09-03T04:05:41.945Z,56080.96
2018-09-03T04:08:11.069Z,56057.32
2018-09-03T04:10:40.212Z,56088.16
2018-09-03T04:13:09.321Z,56083.02
2018-09-03T04:15:38.439Z,56088.16
2018-09-03T04:18:07.580Z,56083.02
2018-09-03T04:20:36.706Z,56067.60
2018-09-03T04:23:06.074Z,56082.00
2018-09-03T04:25:35.135Z,56097.42
2018-09-03T04:28:04.244Z,56100.50
2018-09-03T04:30:33.364Z,56082.00
2018-09-03T04:33:02.483Z,56088.16
2018-09-03T04:35:31.590Z,56075.82
2018-09-03T04:38:00.815Z,56083.02
2018-09-03T04:40:29.979Z,56088.16
2018-09-03T04:42:59.118Z,56104.62
2018-09-03T04:45:28.240Z,56105.64
2018-09-03T04:47:57.369Z,56079.94
2018-09-03T04:50:26.450Z,56063.48
2018-09-03T04:52:55.563Z,56078.91
2018-09-03T04:55:24.720Z,56113.87
2018-09-03T04:57:53.783Z,56105.64
2018-09-03T05:00:22.918Z,56099.47
2018-09-03T05:02:51.985Z,56087.14
2018-09-03T05:05:21.115Z,56061.43
2018-09-03T05:07:50.230Z,56100.50
2018-09-03T05:10:19.324Z,56095.36
2018-09-03T05:12:50.037Z,56095.36
2018-09-03T05:15:19.183Z,56090.22
2018-09-03T05:17:48.345Z,56093.30
2018-09-03T05:20:17.528Z,56078.91
2018-09-03T05:22:46.646Z,56078.91
2018-09-03T05:25:15.753Z,56075.82
2018-09-03T05:27:44.817Z,56084.05
2018-09-03T05:30:13.902Z,56100.50
2018-09-03T05:32:43.054Z,56073.77
2018-09-03T05:35:12.196Z,56073.77
2018-09-03T05:37:41.441Z,56068.62
2018-09-03T05:40:10.848Z,56077.88
2018-09-03T05:42:40.123Z,56106.67
2018-09-03T05:45:09.318Z,56094.33
2018-09-03T05:47:38.494Z,56052.18
2018-09-03T05:50:07.653Z,56041.89
2018-09-03T05:52:36.756Z,56056.29
2018-09-03T05:55:05.878Z,56061.43
2018-09-03T05:57:34.951Z,56030.58
2018-09-03T06:00:04.055Z,56054.23
2018-09-03T06:02:33.158Z,56040.86
2018-09-03T06:05:02.309Z,56073.77
2018-09-03T06:07:31.450Z,56055.26
2018-09-03T06:10:00.520Z,56042.92
2018-09-03T06:12:29.668Z,56063.48
2018-09-03T06:14:58.780Z,56031.61
2018-09-03T06:17:27.862Z,56058.34
2018-09-03T06:19:57.004Z,56021.33
2018-09-03T06:22:26.083Z,56028.52
2018-09-03T06:24:55.186Z,56057.32
2018-09-03T06:27:24.281Z,56050.12
2018-09-03T06:29:53.389Z,56037.78
2018-09-03T06:32:22.497Z,56022.36
2018-09-03T06:34:51.647Z,56058.34
2018-09-03T06:37:20.780Z,56028.52
2018-09-03T06:39:49.894Z,56041.89
2018-09-03T06:42:18.982Z,56036.75
2018-09-03T06:44:48.057Z,56042.92
2018-09-03T06:47:17.166Z,56012.07
2018-09-03T06:49:46.338Z,56042.92
2018-09-03T06:52:15.496Z,56040.86
2018-09-03T06:54:44.650Z,56039.84
2018-09-03T06:57:13.995Z,56021.33
2018-09-03T06:59:43.128Z,56012.07
2018-09-03T07:02:12.254Z,56024.41
2018-09-03T07:04:41.358Z,56001.79
2018-09-03T07:07:10.474Z,56051.14
2018-09-03T07:09:39.575Z,56022.36
2018-09-03T07:12:08.694Z,56019.27
2018-09-03T07:14:37.792Z,55979.17
2018-09-03T07:17:06.946Z,55994.59
2018-09-03T07:19:36.021Z,56027.50
2018-09-03T07:22:05.190Z,56007.96
2018-09-03T07:24:34.549Z,56010.02
2018-09-03T07:27:03.674Z,56042.92
2018-09-03T07:29:32.794Z,55999.73
2018-09-03T07:32:01.913Z,55977.11
2018-09-03T07:34:31.054Z,56017.21
2018-09-03T07:37:00.199Z,56000.76
2018-09-03T07:39:30.127Z,56005.90
2018-09-03T07:41:59.251Z,56000.76
2018-09-03T07:44:28.397Z,56024.41
2018-09-03T07:46:57.506Z,56001.79
2018-09-03T07:49:26.652Z,56003.85
2018-09-03T07:51:56.024Z,55968.89
2018-09-03T07:54:25.109Z,55948.32
2018-09-03T07:56:54.198Z,56002.82
2018-09-03T07:59:23.333Z,55968.89
2018-09-03T08:01:52.433Z,55963.75
2018-09-03T08:04:21.587Z,55968.89
2018-09-03T08:06:50.711Z,55993.57
2018-09-03T08:09:19.812Z,55940.10
2018-09-03T08:11:48.957Z,55947.30
2018-09-03T08:14:18.106Z,55935.98
2018-09-03T08:16:47.225Z,55979.17
2018-09-03T08:19:16.353Z,55939.07
2018-09-03T08:21:45.523Z,55940.10
2018-09-03T08:24:14.682Z,55928.79
2018-09-03T08:26:43.852Z,55931.87
2018-09-03T08:29:13.008Z,55934.96
2018-09-03T08:31:42.346Z,55940.10
2018-09-03T08:34:11.477Z,55958.61
2018-09-03T08:36:40.800Z,55951.41
2018-09-03T08:39:09.930Z,55934.96
2018-09-03T08:41:39.095Z,55967.86
2018-09-03T08:44:08.218Z,55959.63
2018-09-03T08:46:37.467Z,55960.66
2018-09-03T08:49:06.855Z,55987.40
2018-09-03T08:51:35.969Z,55991.51
2018-09-03T08:54:05.113Z,55984.31
2018-09-03T08:56:34.259Z,55989.45
2018-09-03T08:59:03.402Z,55961.69
2018-09-03T09:01:32.547Z,55973.00
2018-09-03T09:04:01.709Z,55941.13
2018-09-03T09:06:30.787Z,55947.30
2018-09-03T09:08:59.950Z,55941.13
2018-09-03T09:11:29.058Z,55948.32
2018-09-03T09:13:58.223Z,55926.73
2018-09-03T09:16:27.317Z,55916.45
2018-09-03T09:18:56.453Z,55942.16
2018-09-03T09:21:25.534Z,55873.27
2018-09-03T09:23:54.638Z,55855.79
2018-09-03T09:26:23.879Z,55931.87
2018-09-03T09:28:53.005Z,55926.73
2018-09-03T09:31:22.078Z,55882.52
2018-09-03T09:33:51.208Z,55837.28
2018-09-03T09:36:20.320Z,55824.94
2018-09-03T09:38:49.462Z,55818.77
2018-09-03T09:41:18.569Z,55773.53
2018-09-03T09:43:47.753Z,55811.57
2018-09-03T09:46:16.865Z,55819.80
2018-09-03T09:48:45.995Z,55836.25
2018-09-03T09:51:15.102Z,55847.56
2018-09-03T09:53:44.197Z,55833.17
2018-09-03T09:56:13.362Z,55830.08
2018-09-03T09:58:42.462Z,55832.14
2018-09-03T10:01:16.980Z,55859.90
2018-09-03T10:03:46.087Z,55861.95
2018-09-03T10:06:15.249Z,55848.59
2018-09-03T10:08:44.387Z,55862.98
2018-09-03T10:11:13.482Z,55849.62
2018-09-03T10:13:42.594Z,55851.68
2018-09-03T10:16:11.695Z,55873.27
2018-09-03T10:18:40.842Z,55897.94
2018-09-03T10:21:09.983Z,55864.01
2018-09-03T10:23:39.086Z,55866.07
2018-09-03T10:26:08.393Z,55881.49
2018-09-03T10:28:37.535Z,55900.00
2018-09-03T10:31:07.255Z,55890.75
2018-09-03T10:33:36.388Z,55950.38
2018-09-03T10:36:05.548Z,55935.98
2018-09-03T10:38:34.728Z,55948.32
2018-09-03T10:41:03.884Z,55924.68
2018-09-03T10:43:33.040Z,55920.56
2018-09-03T10:46:02.192Z,55871.21
2018-09-03T10:48:31.306Z,55894.86
2018-09-03T10:51:00.422Z,55920.56
2018-09-03T10:53:29.586Z,55938.04
2018-09-03T10:55:58.731Z,55916.45
2018-09-03T10:58:27.809Z,55903.08
2018-09-03T11:00:56.951Z,55904.11
2018-09-03T11:03:26.027Z,55886.63
2018-09-03T11:05:55.130Z,55878.41
2018-09-03T11:08:24.228Z,55932.90
2018-09-03T11:10:53.417Z,55934.96
2018-09-03T11:13:22.588Z,55923.65
2018-09-03T11:15:51.732Z,55935.98
2018-09-03T11:18:20.802Z,55931.87
2018-09-03T11:20:49.872Z,55958.61
2018-09-03T11:23:18.968Z,55960.66
2018-09-03T11:25:48.062Z,55963.75
2018-09-03T11:28:17.177Z,55963.75
2018-09-03T11:30:46.339Z,55966.83
2018-09-03T11:33:15.546Z,55958.61
2018-09-03T11:35:44.774Z,55963.75
2018-09-03T11:38:13.970Z,55967.86
2018-09-03T11:40:43.278Z,55985.34
2018-09-03T11:43:12.521Z,55931.87
2018-09-03T11:45:41.651Z,55985.34
2018-09-03T11:48:10.752Z,55959.63
2018-09-03T11:50:39.879Z,55977.11
2018-09-03T11:53:09.042Z,55971.97
2018-09-03T11:55:38.172Z,55967.86
2018-09-03T11:58:07.301Z,55973.00
2018-09-03T12:00:36.542Z,55955.52
2018-09-03T12:03:05.871Z,55971.97
2018-09-03T12:05:34.994Z,55947.30
2018-09-03T12:08:04.102Z,55932.90
2018-09-03T12:10:33.261Z,55948.32
2018-09-03T12:13:02.386Z,55939.07
2018-09-03T12:15:38.699Z,55926.73
2018-09-03T12:18:07.842Z,55945.24
2018-09-03T12:20:36.970Z,55942.16
2018-09-03T12:23:06.146Z,55928.79
2018-09-03T12:25:35.232Z,55939.07
2018-09-03T12:28:04.427Z,55943.18
2018-09-03T12:30:33.585Z,55898.97
2018-09-03T12:33:02.740Z,55920.56
2018-09-03T12:35:31.935Z,55921.59
2018-09-03T12:38:01.108Z,55901.03
2018-09-03T12:40:30.258Z,55903.08
2018-09-03T12:42:59.415Z,55946.27
2018-09-03T12:45:33.932Z,55931.87
2018-09-03T12:48:03.297Z,55915.42
2018-09-03T12:50:32.411Z,55917.48
2018-09-03T12:53:01.699Z,55938.04
2018-09-03T12:55:30.845Z,55914.39
2018-09-03T12:57:59.987Z,55931.87
2018-09-03T13:00:29.138Z,55937.01
2018-09-03T13:02:58.335Z,55940.10
2018-09-03T13:05:27.435Z,55938.04
2018-09-03T13:07:56.559Z,55921.59
2018-09-03T13:10:25.754Z,55905.14
2018-09-03T13:12:54.899Z,55935.98
2018-09-03T13:15:24.067Z,55932.90
2018-09-03T13:17:53.232Z,55945.24
2018-09-03T13:20:22.326Z,55953.46
2018-09-03T13:22:51.472Z,55921.59
2018-09-03T13:25:20.636Z,55942.16
2018-09-03T13:27:49.833Z,55942.16
2018-09-03T13:30:19.016Z,55973.00
2018-09-03T13:32:48.194Z,55930.84
2018-09-03T13:35:17.385Z,55982.25
2018-09-03T13:37:46.724Z,55987.40
2018-09-03T13:40:15.898Z,55953.46
2018-09-03T13:42:45.029Z,55955.52
2018-09-03T13:45:14.228Z,55951.41
2018-09-03T13:47:43.399Z,55946.27
2018-09-03T13:50:12.544Z,55933.93
2018-09-03T13:52:41.691Z,55960.66
2018-09-03T13:55:10.813Z,55956.55
2018-09-03T13:57:39.983Z,55961.69
2018-09-03T14:00:10.531Z,55948.32
2018-09-03T14:02:39.828Z,55929.82
2018-09-03T14:05:09.009Z,55959.63
2018-09-03T14:07:38.109Z,55961.69
2018-09-03T14:10:07.318Z,55888.69
2018-09-03T14:12:36.457Z,55896.91
2018-09-03T14:15:06.096Z,55908.23
2018-09-03T14:17:35.211Z,55923.65
2018-09-03T14:20:04.556Z,55948.32
2018-09-03T14:22:33.637Z,55957.58
2018-09-03T14:25:02.860Z,55957.58
2018-09-03T14:27:32.023Z,55965.80
2018-09-03T14:30:01.139Z,55946.27
2018-09-03T14:32:30.355Z,55980.20
2018-09-03T14:34:59.474Z,55944.21
2018-09-03T14:37:28.553Z,55948.32
2018-09-03T14:39:57.719Z,55934.96
2018-09-03T14:42:26.952Z,55935.98
2018-09-03T14:44:56.426Z,55927.76
2018-09-03T14:47:25.600Z,55948.32
2018-09-03T14:49:54.744Z,55947.30
2018-09-03T14:52:23.905Z,55946.27
2018-09-03T14:54:53.112Z,55905.14
2018-09-03T14:57:22.328Z,55912.34
2018-09-03T14:59:51.517Z,55929.82
2018-09-03T15:02:20.734Z,55975.06
2018-09-03T15:04:49.889Z,55964.78
2018-09-03T15:07:19.077Z,55947.30
2018-09-03T15:09:48.319Z,55973.00
2018-09-03T15:12:17.505Z,55946.27
2018-09-03T15:14:46.659Z,55976.09
2018-09-03T15:17:15.819Z,55963.75
2018-09-03T15:19:44.990Z,55951.41
2018-09-03T15:22:14.179Z,55985.34
2018-09-03T15:24:43.310Z,55955.52
2018-09-03T15:27:12.444Z,55955.52
2018-09-03T15:29:41.648Z,55938.04
2018-09-03T15:32:10.747Z,55966.83
2018-09-03T15:34:39.890Z,55979.17
2018-09-03T15:37:09.085Z,55974.03
2018-09-03T15:39:38.289Z,55970.95
2018-09-03T15:42:07.449Z,56006.93
2018-09-03T15:44:36.633Z,55975.06
2018-09-03T15:47:05.763Z,55984.31
2018-09-03T15:49:34.924Z,55977.11
2018-09-03T15:52:04.112Z,56001.79
2018-09-03T15:54:33.269Z,55970.95
2018-09-03T15:57:02.443Z,55984.31
2018-09-03T15:59:31.832Z,56001.79
2018-09-03T16:02:01.023Z,55987.40
2018-09-03T16:04:30.186Z,55997.68
2018-09-03T16:06:59.345Z,55989.45
2018-09-03T16:09:28.473Z,55967.86
2018-09-03T16:11:57.619Z,55986.37
2018-09-03T16:14:26.791Z,55971.97
2018-09-03T16:16:55.946Z,55989.45
2018-09-03T16:19:25.181Z,55977.11
2018-09-03T16:21:54.335Z,56012.07
2018-09-03T16:24:23.714Z,55987.40
2018-09-03T16:26:52.869Z,55981.23
2018-09-03T16:29:21.986Z,55985.34
2018-09-03T16:31:51.206Z,56008.99
2018-09-03T16:34:20.402Z,55978.14
2018-09-03T16:36:49.534Z,56002.82
2018-09-03T16:39:18.707Z,56015.16
2018-09-03T16:41:47.858Z,56030.58
2018-09-03T16:44:16.991Z,55988.43
2018-09-03T16:46:46.153Z,56007.96
2018-09-03T16:49:15.293Z,56010.02
2018-09-03T16:51:44.594Z,56010.02
2018-09-03T16:54:13.789Z,56003.85
2018-09-03T16:56:43.027Z,56044.98
2018-09-03T16:59:12.135Z,56032.64
2018-09-03T17:01:41.289Z,56037.78
2018-09-03T17:04:10.494Z,56016.19
2018-09-03T17:06:39.656Z,56034.70
2018-09-03T17:09:08.876Z,56016.19
2018-09-03T17:11:38.011Z,56002.82
2018-09-03T17:14:07.343Z,56004.87
2018-09-03T17:16:36.512Z,56020.30
2018-09-03T17:19:05.925Z,56020.30
2018-09-03T17:21:35.065Z,56033.67
2018-09-03T17:24:04.223Z,56029.55
2018-09-03T17:26:33.334Z,56004.87
2018-09-03T17:29:02.486Z,56036.75
2018-09-03T17:31:31.659Z,56038.81
2018-09-03T17:34:00.796Z,56006.93
2018-09-03T17:36:29.945Z,56032.64
2018-09-03T17:38:59.083Z,56036.75
2018-09-03T17:41:28.253Z,56030.58
2018-09-03T17:43:57.390Z,56024.41
2018-09-03T17:46:26.480Z,56038.81
2018-09-03T17:48:55.880Z,56022.36
2018-09-03T17:51:25.057Z,56033.67
2018-09-03T17:53:54.206Z,56038.81
2018-09-03T17:56:23.349Z,56020.30
2018-09-03T17:58:52.469Z,56021.33
2018-09-03T18:01:21.599Z,56007.96
2018-09-03T18:03:50.828Z,56014.13
2018-09-03T18:06:19.959Z,56036.75
2018-09-03T18:08:49.098Z,56039.84
2018-09-03T18:11:18.258Z,56030.58
2018-09-03T18:13:47.450Z,56025.44
2018-09-03T18:16:16.580Z,56058.34
2018-09-03T18:18:45.792Z,56006.93
2018-09-03T18:21:14.947Z,56047.03
2018-09-03T18:23:44.175Z,56026.47
2018-09-03T18:26:13.334Z,56055.26
2018-09-03T18:28:42.594Z,56015.16
2018-09-03T18:31:11.687Z,56021.33
2018-09-03T18:33:40.822Z,56037.78
2018-09-03T18:36:10.011Z,56039.84
2018-09-03T18:38:39.170Z,56026.47
2018-09-03T18:41:08.307Z,56026.47
2018-09-03T18:43:37.512Z,56078.91
2018-09-03T18:46:06.977Z,56057.32
2018-09-03T18:48:36.136Z,56042.92
2018-09-03T18:51:05.739Z,56049.09
2018-09-03T18:53:34.943Z,56054.23
2018-09-03T18:56:04.103Z,56027.50
2018-09-03T18:58:33.232Z,56028.52
2018-09-03T19:01:02.363Z,56030.58
2018-09-03T19:03:31.620Z,56049.09
2018-09-03T19:06:00.769Z,56047.03
2018-09-03T19:08:29.852Z,56037.78
2018-09-03T19:10:58.952Z,56061.43
2018-09-03T19:13:28.209Z,56039.84
2018-09-03T19:15:57.344Z,56028.52
2018-09-03T19:18:26.494Z,56063.48
2018-09-03T19:20:55.675Z,56051.14
2018-09-03T19:23:24.953Z,56049.09
2018-09-03T19:25:54.213Z,56077.88
2018-09-03T19:28:23.428Z,56055.26
2018-09-03T19:30:52.532Z,56036.75
2018-09-03T19:33:21.709Z,56059.37
2018-09-03T19:35:50.823Z,56055.26
2018-09-03T19:38:20.061Z,56033.67
2018-09-03T19:40:49.272Z,56060.40
2018-09-03T19:43:18.443Z,56063.48
2018-09-03T19:45:47.651Z,56061.43
2018-09-03T19:48:16.984Z,56047.03
2018-09-03T19:50:46.241Z,56050.12
2018-09-03T19:53:15.416Z,56073.77
2018-09-03T19:55:44.571Z,56053.20
2018-09-03T19:58:13.835Z,56076.85
2018-09-03T20:00:43.006Z,56071.71
2018-09-03T20:03:12.513Z,56067.60
2018-09-03T20:05:41.706Z,56044.98
2018-09-03T20:08:10.840Z,56062.46
2018-09-03T20:10:39.977Z,56053.20
2018-09-03T20:13:09.165Z,56062.46
2018-09-03T20:15:38.400Z,56074.80
2018-09-03T20:18:07.577Z,56073.77
2018-09-03T20:20:36.685Z,56043.95
2018-09-03T20:23:05.990Z,56060.40
2018-09-03T20:25:35.103Z,56062.46
2018-09-03T20:28:04.240Z,56072.74
2018-09-03T20:30:33.420Z,56066.57
2018-09-03T20:33:02.479Z,56085.08
2018-09-03T20:35:31.586Z,56073.77
2018-09-03T20:38:00.765Z,56057.32
2018-09-03T20:40:29.937Z,56063.48
2018-09-03T20:42:59.186Z,56049.09
2018-09-03T20:45:28.291Z,56059.37
2018-09-03T20:47:57.526Z,56075.82
2018-09-03T20:50:29.578Z,56060.40
2018-09-03T20:52:58.685Z,56048.06
2018-09-03T20:55:27.909Z,56059.37
2018-09-03T20:57:57.064Z,56054.23
2018-09-03T21:00:26.193Z,56063.48
2018-09-03T21:02:55.335Z,56077.88
2018-09-03T21:05:24.471Z,56051.14
2018-09-03T21:07:53.670Z,56075.82
2018-09-03T21:10:22.800Z,56061.43
2018-09-03T21:12:51.981Z,56072.74
2018-09-03T21:15:21.125Z,56032.64
2018-09-03T21:17:50.272Z,56055.26
2018-09-03T21:20:19.351Z,56073.77
2018-09-03T21:22:48.461Z,56091.25
2018-09-03T21:25:17.599Z,56055.26
2018-09-03T21:27:46.740Z,56053.20
2018-09-03T21:30:15.882Z,56096.39
2018-09-03T21:32:45.008Z,56053.20
2018-09-03T21:35:14.140Z,56072.74
2018-09-03T21:37:43.261Z,56080.96
2018-09-03T21:40:12.398Z,56073.77
2018-09-03T21:42:41.526Z,56109.76
2018-09-03T21:45:10.680Z,56114.90
2018-09-03T21:47:39.817Z,56073.77
2018-09-03T21:50:08.960Z,56092.28
2018-09-03T21:52:38.139Z,56059.37
2018-09-03T21:55:07.308Z,56096.39
2018-09-03T21:57:36.457Z,56084.05
2018-09-03T22:00:06.040Z,56052.18
2018-09-03T22:02:35.156Z,56047.03
2018-09-03T22:05:04.476Z,56067.60
2018-09-03T22:07:33.599Z,56048.06
2018-09-03T22:10:02.707Z,56076.85
2018-09-03T22:12:31.850Z,56071.71
2018-09-03T22:15:00.983Z,56096.39
2018-09-03T22:17:30.155Z,56060.40
2018-09-03T22:19:59.308Z,56078.91
2018-09-03T22:22:28.467Z,56069.65
2018-09-03T22:24:57.618Z,56063.48
2018-09-03T22:27:33.515Z,56077.88
2018-09-03T22:30:02.616Z,56065.54
2018-09-03T22:32:31.793Z,56040.86
2018-09-03T22:35:00.913Z,56034.70
2018-09-03T22:37:30.004Z,56040.86
2018-09-03T22:39:59.135Z,56053.20
2018-09-03T22:42:28.364Z,56075.82
2018-09-03T22:44:58.561Z,56071.71
2018-09-03T22:47:27.679Z,56060.40
2018-09-03T22:49:56.797Z,56088.16
2018-09-03T22:52:25.955Z,56088.16
2018-09-03T22:54:55.099Z,56065.54
2018-09-03T22:57:24.246Z,56070.68
2018-09-03T22:59:53.417Z,56059.37
2018-09-03T23:02:22.552Z,56086.11
2018-09-03T23:04:51.737Z,56070.68
2018-09-03T23:07:20.937Z,56051.14
2018-09-03T23:09:50.069Z,56061.43
2018-09-03T23:12:19.226Z,56069.65
2018-09-03T23:14:48.391Z,56075.82
2018-09-03T23:17:17.540Z,56066.57
2018-09-03T23:19:46.697Z,56086.11
2018-09-03T23:22:15.869Z,56093.30
2018-09-03T23:24:45.023Z,56084.05
2018-09-03T23:27:14.361Z,56086.11
2018-09-03T23:29:43.558Z,56084.05
2018-09-03T23:32:12.662Z,56076.85
2018-09-03T23:34:41.833Z,56082.00
2018-09-03T23:37:11.013Z,56052.18
2018-09-03T23:39:40.194Z,56090.22
2018-09-03T23:42:09.345Z,56090.22
2018-09-03T23:44:38.524Z,56065.54
2018-09-03T23:47:07.728Z,56080.96
2018-09-03T23:49:36.902Z,56084.05
2018-09-03T23:52:06.038Z,56088.16
2018-09-03T23:54:35.152Z,56058.34
2018-09-03T23:57:04.347Z,56109.76
2018-09-03T23:59:33.446Z,56089.19
